createdAt,value
2023-02-24T00:01:25.893Z,30.90
2023-02-24T00:04:13.669Z,27.55
2023-02-24T00:06:59.984Z,26.88
2023-02-24T00:09:45.772Z,27.30
2023-02-24T00:12:31.478Z,27.52
2023-02-24T00:15:17.423Z,29.70
2023-02-24T00:18:07.175Z,29.40
2023-02-24T00:20:56.638Z,31.98
2023-02-24T00:23:47.108Z,39.85
2023-02-24T00:26:33.074Z,36.20
2023-02-24T00:29:19.411Z,36.67
2023-02-24T00:32:08.068Z,34.60
2023-02-24T00:34:55.289Z,33.30
2023-02-24T00:37:43.699Z,32.42
2023-02-24T00:40:30.490Z,32.47
2023-02-24T00:43:18.726Z,32.10
2023-02-24T00:46:11.406Z,36.15
2023-02-24T00:48:58.485Z,38.85
2023-02-24T00:51:49.009Z,41.05
2023-02-24T00:54:36.631Z,41.85
2023-02-24T00:57:22.632Z,40.97
2023-02-24T01:00:16.753Z,44.25
2023-02-24T01:03:03.690Z,41.13
2023-02-24T01:05:50.367Z,37.53
2023-02-24T01:08:38.680Z,33.80
2023-02-24T01:11:45.692Z,37.20
2023-02-24T01:14:33.607Z,37.60
2023-02-24T01:17:20.336Z,31.65
2023-02-24T01:20:18.478Z,31.33
2023-02-24T01:23:04.622Z,29.50
2023-02-24T01:25:50.769Z,29.00
2023-02-24T01:28:37.726Z,28.85
2023-02-24T01:31:25.314Z,28.63
2023-02-24T01:34:13.089Z,31.88
2023-02-24T01:36:58.990Z,30.67
2023-02-24T01:39:46.219Z,31.67
2023-02-24T01:42:32.952Z,30.77
2023-02-24T01:45:25.233Z,28.73
2023-02-24T01:48:12.675Z,28.02
2023-02-24T01:50:59.335Z,30.40
2023-02-24T01:53:45.827Z,30.67
2023-02-24T01:56:32.678Z,29.30
2023-02-24T01:59:20.395Z,29.45
2023-02-24T02:02:08.684Z,31.30
2023-02-24T02:04:58.898Z,31.73
2023-02-24T02:07:45.302Z,30.35
2023-02-24T02:10:32.156Z,30.23
2023-02-24T02:13:21.585Z,28.20
2023-02-24T02:16:17.944Z,29.52
2023-02-24T02:19:22.857Z,46.00
2023-02-24T02:22:19.177Z,45.47
2023-02-24T02:25:26.660Z,38.38
2023-02-24T02:28:31.833Z,34.38
2023-02-24T02:31:29.309Z,29.92
2023-02-24T02:34:22.664Z,28.92
2023-02-24T02:37:34.796Z,29.00
2023-02-24T02:40:49.856Z,30.13
2023-02-24T02:43:46.575Z,30.20
2023-02-24T02:46:41.276Z,28.95
2023-02-24T02:49:32.412Z,28.65
2023-02-24T02:52:35.873Z,29.17
2023-02-24T02:55:26.510Z,30.10
2023-02-24T02:58:15.822Z,30.67
2023-02-24T03:01:07.349Z,29.75
2023-02-24T03:03:56.007Z,27.02
2023-02-24T03:06:45.996Z,29.75
2023-02-24T03:09:39.307Z,29.67
2023-02-24T03:12:29.613Z,30.08
2023-02-24T03:15:17.126Z,27.85
2023-02-24T03:18:12.184Z,27.42
2023-02-24T03:21:20.321Z,28.73
2023-02-24T03:24:07.445Z,28.88
2023-02-24T03:27:03.223Z,30.45
2023-02-24T03:30:13.083Z,32.03
2023-02-24T03:33:05.664Z,32.78
2023-02-24T03:35:52.558Z,29.10
2023-02-24T03:38:38.774Z,29.10
2023-02-24T03:41:30.941Z,29.38
2023-02-24T03:44:17.079Z,29.25
2023-02-24T03:47:03.646Z,29.85
2023-02-24T03:49:50.524Z,29.55
2023-02-24T03:53:01.800Z,29.45
2023-02-24T03:56:03.800Z,32.70
2023-02-24T03:59:18.723Z,30.90
2023-02-24T04:02:09.263Z,30.67
2023-02-24T04:05:20.785Z,31.48
2023-02-24T04:08:21.475Z,29.65
2023-02-24T04:11:23.081Z,30.50
2023-02-24T04:14:32.094Z,30.77
2023-02-24T04:17:23.484Z,33.05
2023-02-24T04:23:10.760Z,29.77
2023-02-24T04:25:57.066Z,33.80
2023-02-24T04:28:44.820Z,33.60
2023-02-24T04:31:32.210Z,34.53
2023-02-24T04:34:20.336Z,33.15
2023-02-24T04:37:07.151Z,40.67
2023-02-24T04:39:55.155Z,36.22
2023-02-24T04:42:49.213Z,36.80
2023-02-24T04:45:35.435Z,37.95
2023-02-24T04:48:21.117Z,35.50
2023-02-24T04:51:06.992Z,37.42
2023-02-24T04:53:55.420Z,42.53
2023-02-24T04:56:41.497Z,49.65
2023-02-24T04:59:28.112Z,50.78
2023-02-24T05:02:18.855Z,51.92
2023-02-24T05:05:08.547Z,51.95
2023-02-24T05:08:03.140Z,53.38
2023-02-24T05:10:49.475Z,53.03
2023-02-24T05:13:37.686Z,54.17
2023-02-24T05:16:23.492Z,53.88
2023-02-24T05:19:30.053Z,51.60
2023-02-24T05:22:17.566Z,49.97
2023-02-24T05:25:04.981Z,47.13
2023-02-24T05:27:51.362Z,52.58
2023-02-24T05:30:38.356Z,50.50
2023-02-24T05:33:24.298Z,53.10
2023-02-24T05:36:15.234Z,51.15
2023-02-24T05:39:07.861Z,47.13
2023-02-24T05:41:57.227Z,45.03
2023-02-24T05:44:43.697Z,45.75
2023-02-24T05:47:30.151Z,45.30
2023-02-24T05:50:17.501Z,47.25
2023-02-24T05:53:03.791Z,47.53
2023-02-24T05:55:49.645Z,43.67
2023-02-24T05:58:39.273Z,50.67
2023-02-24T06:01:25.250Z,56.08
2023-02-24T06:04:20.843Z,51.05
2023-02-24T06:07:14.621Z,48.53
2023-02-24T06:10:01.960Z,46.55
2023-02-24T06:12:47.833Z,43.85
2023-02-24T06:15:34.061Z,43.92
2023-02-24T06:18:21.526Z,47.28
2023-02-24T06:21:07.972Z,51.20
2023-02-24T06:23:54.142Z,52.90
2023-02-24T06:26:43.469Z,76.65
2023-02-24T06:29:30.560Z,70.47
2023-02-24T06:32:20.976Z,70.63
2023-02-24T06:35:07.211Z,87.45
2023-02-24T06:37:55.945Z,78.38
2023-02-24T06:40:42.770Z,65.97
2023-02-24T06:43:28.854Z,55.90
2023-02-24T06:46:16.497Z,51.60
2023-02-24T06:49:03.049Z,51.28
2023-02-24T06:51:50.468Z,50.17
2023-02-24T06:54:36.348Z,48.03
2023-02-24T06:57:23.645Z,55.90
2023-02-24T07:00:20.768Z,59.30
2023-02-24T07:03:15.042Z,61.78
2023-02-24T07:06:12.355Z,52.35
2023-02-24T07:08:58.889Z,49.53
2023-02-24T07:11:48.312Z,54.67
2023-02-24T07:14:37.022Z,55.03
2023-02-24T07:17:23.516Z,53.08
2023-02-24T07:20:13.202Z,50.30
2023-02-24T07:22:59.245Z,49.67
2023-02-24T07:25:46.464Z,51.88
2023-02-24T07:28:32.385Z,51.90
2023-02-24T07:31:21.114Z,50.67
2023-02-24T07:34:07.276Z,52.92
2023-02-24T07:36:53.340Z,49.80
2023-02-24T07:39:40.763Z,47.90
2023-02-24T07:42:30.623Z,53.33
2023-02-24T07:45:16.995Z,55.00
2023-02-24T07:48:02.971Z,58.90
2023-02-24T07:50:50.915Z,58.67
2023-02-24T07:53:37.010Z,63.15
2023-02-24T07:56:32.989Z,58.60
2023-02-24T07:59:19.702Z,58.10
2023-02-24T08:02:07.831Z,54.85
2023-02-24T08:04:54.239Z,52.72
2023-02-24T08:07:40.446Z,51.38
2023-02-24T08:10:26.714Z,51.20
2023-02-24T08:13:13.063Z,45.05
2023-02-24T08:15:59.024Z,41.83
2023-02-24T08:18:50.796Z,49.55
2023-02-24T08:21:41.312Z,44.92
2023-02-24T08:24:30.240Z,45.05
2023-02-24T08:27:21.110Z,43.80
2023-02-24T08:30:08.113Z,44.47
2023-02-24T08:32:57.219Z,44.50
2023-02-24T08:35:45.012Z,42.50
2023-02-24T08:38:42.079Z,51.83
2023-02-24T08:41:44.964Z,45.78
2023-02-24T08:47:21.258Z,42.05
2023-02-24T08:50:07.449Z,39.47
2023-02-24T08:52:53.501Z,37.83
2023-02-24T08:55:40.083Z,38.08
2023-02-24T08:58:29.102Z,34.08
2023-02-24T09:01:20.160Z,29.00
2023-02-24T09:04:07.474Z,24.13
2023-02-24T09:07:10.644Z,31.35
2023-02-24T09:09:57.186Z,24.70
2023-02-24T09:12:42.975Z,20.85
2023-02-24T09:15:41.429Z,19.15
2023-02-24T09:18:30.382Z,17.10
2023-02-24T09:21:36.445Z,17.50
2023-02-24T09:24:28.371Z,15.05
2023-02-24T09:27:17.319Z,19.48
2023-02-24T09:30:08.233Z,16.27
2023-02-24T09:33:01.443Z,22.50
2023-02-24T09:35:53.673Z,13.40
2023-02-24T09:38:59.645Z,15.83
2023-02-24T09:42:08.072Z,14.77
2023-02-24T09:45:01.609Z,12.63
2023-02-24T09:47:57.297Z,12.18
2023-02-24T09:51:04.556Z,12.00
2023-02-24T09:53:53.276Z,8.38
2023-02-24T09:56:42.744Z,8.15
2023-02-24T10:00:23.333Z,6.75
2023-02-24T10:03:20.957Z,7.82
2023-02-24T10:06:26.921Z,9.93
2023-02-24T10:09:42.299Z,8.88
2023-02-24T10:12:40.285Z,6.70
2023-02-24T10:15:58.982Z,6.63
2023-02-24T10:19:26.022Z,7.90
2023-02-24T10:22:27.561Z,7.05
2023-02-24T10:25:54.088Z,5.90
2023-02-24T10:28:52.129Z,8.38
2023-02-24T10:31:48.045Z,7.32
2023-02-24T10:34:34.420Z,11.13
2023-02-24T10:37:28.752Z,9.18
2023-02-24T10:40:26.472Z,9.20
2023-02-24T10:43:30.140Z,8.80
2023-02-24T10:46:41.053Z,9.10
2023-02-24T10:49:27.535Z,8.13
2023-02-24T10:52:33.492Z,9.88
2023-02-24T10:55:28.540Z,6.32
2023-02-24T10:58:28.271Z,7.35
2023-02-24T11:01:21.086Z,9.60
2023-02-24T11:07:25.030Z,9.63
2023-02-24T11:10:26.059Z,8.43
2023-02-24T11:13:35.163Z,7.88
2023-02-24T11:16:39.858Z,8.45
2023-02-24T11:19:29.512Z,10.25
2023-02-24T11:22:24.432Z,8.98
2023-02-24T11:25:27.326Z,8.35
2023-02-24T11:28:35.948Z,8.93
2023-02-24T11:31:25.202Z,6.63
2023-02-24T11:34:59.617Z,8.68
2023-02-24T11:37:48.784Z,8.07
2023-02-24T11:40:40.418Z,7.03
2023-02-24T11:43:28.328Z,10.50
2023-02-24T11:46:22.958Z,12.45
2023-02-24T11:49:27.504Z,8.65
2023-02-24T11:52:21.253Z,6.60
2023-02-24T11:55:17.514Z,9.38
2023-02-24T11:58:07.819Z,9.57
2023-02-24T12:01:06.767Z,7.38
2023-02-24T12:04:05.207Z,7.85
2023-02-24T12:07:14.057Z,9.25
2023-02-24T12:10:16.616Z,11.07
2023-02-24T12:13:15.873Z,8.52
2023-02-24T12:16:07.853Z,8.23
2023-02-24T12:19:06.467Z,9.55
2023-02-24T12:21:59.159Z,8.38
2023-02-24T12:24:50.050Z,9.57
2023-02-24T12:27:42.487Z,9.13
2023-02-24T12:33:49.861Z,9.07
2023-02-24T12:36:39.028Z,8.18
2023-02-24T12:39:42.167Z,7.75
2023-02-24T12:43:19.047Z,7.18
2023-02-24T12:46:27.264Z,7.95
2023-02-24T12:49:40.418Z,7.32
2023-02-24T12:52:38.238Z,8.52
2023-02-24T12:55:31.617Z,8.55
2023-02-24T12:58:25.846Z,6.38
2023-02-24T13:01:24.852Z,7.35
2023-02-24T13:04:14.327Z,7.90
2023-02-24T13:07:09.962Z,7.10
2023-02-24T13:09:55.699Z,7.10
2023-02-24T13:13:00.433Z,7.95
2023-02-24T13:15:55.146Z,8.43
2023-02-24T13:18:41.046Z,6.85
2023-02-24T13:21:27.103Z,7.20
2023-02-24T13:24:21.749Z,8.45
2023-02-24T13:27:13.533Z,9.60
2023-02-24T13:30:01.783Z,8.95
2023-02-24T13:32:59.719Z,8.60
2023-02-24T13:35:47.657Z,9.20
2023-02-24T13:38:33.290Z,7.47
2023-02-24T13:41:22.443Z,7.50
2023-02-24T13:44:26.280Z,7.97
2023-02-24T13:47:35.618Z,8.50
2023-02-24T13:50:41.257Z,8.00
2023-02-24T13:54:04.791Z,9.48
2023-02-24T13:56:57.588Z,7.97
2023-02-24T14:00:13.010Z,8.75
2023-02-24T14:02:59.420Z,7.00
2023-02-24T14:05:45.641Z,8.35
2023-02-24T14:08:47.858Z,8.38
2023-02-24T14:11:36.275Z,7.57
2023-02-24T14:14:22.389Z,7.38
2023-02-24T14:17:30.140Z,7.15
2023-02-24T14:20:21.136Z,6.65
2023-02-24T14:23:39.734Z,7.43
2023-02-24T14:26:26.437Z,7.07
2023-02-24T14:29:16.842Z,8.35
2023-02-24T14:32:03.290Z,7.53
2023-02-24T14:34:49.702Z,8.65
2023-02-24T14:37:35.999Z,8.70
2023-02-24T14:40:25.424Z,7.53
2023-02-24T14:43:15.123Z,7.63
2023-02-24T14:46:05.924Z,7.97
2023-02-24T14:48:56.434Z,8.50
2023-02-24T14:51:42.390Z,6.75
2023-02-24T14:54:54.929Z,6.28
2023-02-24T14:57:45.655Z,6.55
2023-02-24T15:00:35.329Z,9.18
2023-02-24T15:03:24.494Z,8.20
2023-02-24T15:06:25.331Z,6.65
2023-02-24T15:09:15.957Z,10.10
2023-02-24T15:12:18.816Z,7.05
2023-02-24T15:17:58.262Z,6.20
2023-02-24T15:20:44.413Z,6.70
2023-02-24T15:23:36.192Z,6.53
2023-02-24T15:26:27.242Z,7.18
2023-02-24T15:29:15.657Z,8.30
2023-02-24T15:32:04.268Z,7.78
2023-02-24T15:34:50.367Z,7.30
2023-02-24T15:37:42.012Z,8.25
2023-02-24T15:40:29.518Z,8.57
2023-02-24T15:43:35.026Z,8.50
2023-02-24T15:46:24.788Z,7.32
2023-02-24T15:49:11.285Z,6.82
2023-02-24T15:51:59.836Z,6.95
2023-02-24T15:54:45.694Z,8.38
2023-02-24T15:57:32.594Z,7.85
2023-02-24T16:00:21.544Z,7.63
2023-02-24T16:03:07.876Z,6.95
2023-02-24T16:05:53.620Z,7.38
2023-02-24T16:08:44.717Z,9.82
2023-02-24T16:11:32.480Z,9.23
2023-02-24T16:14:18.612Z,10.07
2023-02-24T16:17:08.981Z,9.55
2023-02-24T16:19:56.917Z,8.30
2023-02-24T16:22:42.980Z,8.00
2023-02-24T16:25:30.626Z,9.05
2023-02-24T16:28:18.795Z,8.77
2023-02-24T16:31:05.134Z,9.63
2023-02-24T16:33:55.200Z,9.70
2023-02-24T16:36:43.090Z,9.43
2023-02-24T16:39:29.727Z,8.40
2023-02-24T16:42:17.612Z,8.73
2023-02-24T16:45:03.883Z,8.23
2023-02-24T16:47:56.278Z,7.32
2023-02-24T16:50:43.625Z,6.85
2023-02-24T16:53:29.487Z,7.13
2023-02-24T16:56:15.763Z,6.25
2023-02-24T16:59:01.697Z,6.55
2023-02-24T17:01:48.069Z,7.70
2023-02-24T17:04:33.981Z,7.88
2023-02-24T17:07:21.370Z,7.65
2023-02-24T17:10:07.981Z,7.68
2023-02-24T17:12:54.164Z,7.75
2023-02-24T17:15:40.149Z,7.97
2023-02-24T17:18:27.245Z,9.20
2023-02-24T17:21:15.190Z,11.90
2023-02-24T17:24:01.334Z,12.57
2023-02-24T17:26:47.218Z,9.50
2023-02-24T17:29:33.141Z,9.23
2023-02-24T17:32:19.492Z,10.63
2023-02-24T17:35:06.090Z,10.40
2023-02-24T17:37:52.084Z,13.98
2023-02-24T17:40:38.379Z,15.45
2023-02-24T17:43:24.277Z,17.85
2023-02-24T17:46:10.192Z,14.40
2023-02-24T17:48:56.338Z,13.93
2023-02-24T17:51:42.337Z,13.32
2023-02-24T17:54:28.174Z,13.95
2023-02-24T17:57:14.187Z,15.98
2023-02-24T18:00:00.055Z,14.93
2023-02-24T18:02:46.111Z,15.13
2023-02-24T18:05:32.441Z,13.43
2023-02-24T18:08:18.134Z,13.93
2023-02-24T18:11:05.343Z,13.70
2023-02-24T18:13:52.744Z,15.15
2023-02-24T18:16:39.548Z,15.57
2023-02-24T18:19:25.634Z,15.13
2023-02-24T18:22:11.957Z,13.32
2023-02-24T18:24:59.237Z,12.25
2023-02-24T18:27:45.246Z,12.20
2023-02-24T18:30:31.256Z,9.77
2023-02-24T18:33:17.006Z,8.88
2023-02-24T18:36:02.849Z,13.10
2023-02-24T18:38:48.647Z,12.60
2023-02-24T18:41:34.980Z,13.10
2023-02-24T18:44:21.363Z,18.23
2023-02-24T18:47:09.848Z,15.27
2023-02-24T18:49:55.801Z,14.82
2023-02-24T18:52:42.052Z,14.30
2023-02-24T18:55:28.207Z,12.90
2023-02-24T18:58:14.549Z,13.65
2023-02-24T19:01:01.119Z,12.27
2023-02-24T19:03:47.943Z,11.57
2023-02-24T19:06:35.193Z,11.10
2023-02-24T19:09:21.954Z,12.52
2023-02-24T19:12:08.287Z,14.52
2023-02-24T19:14:54.146Z,18.13
2023-02-24T19:17:40.073Z,18.95
2023-02-24T19:20:25.950Z,18.25
2023-02-24T19:23:11.819Z,17.40
2023-02-24T19:25:57.929Z,17.67
2023-02-24T19:28:44.161Z,15.00
2023-02-24T19:31:32.587Z,16.63
2023-02-24T19:34:18.775Z,18.50
2023-02-24T19:37:04.588Z,15.60
2023-02-24T19:39:51.033Z,17.45
2023-02-24T19:42:37.193Z,18.27
2023-02-24T19:45:23.199Z,17.65
2023-02-24T19:48:10.338Z,18.92
2023-02-24T19:50:56.490Z,16.25
2023-02-24T19:53:42.334Z,16.52
2023-02-24T19:56:30.477Z,16.50
2023-02-24T19:59:17.966Z,19.45
2023-02-24T20:02:04.172Z,18.13
2023-02-24T20:04:50.917Z,16.00
2023-02-24T20:07:37.422Z,15.40
2023-02-24T20:10:23.283Z,22.67
2023-02-24T20:13:09.287Z,17.23
2023-02-24T20:16:10.042Z,14.80
2023-02-24T20:18:56.170Z,17.80
2023-02-24T20:21:42.645Z,21.35
2023-02-24T20:24:28.285Z,22.38
2023-02-24T20:27:14.357Z,18.42
2023-02-24T20:30:00.936Z,15.32
2023-02-24T20:32:46.877Z,15.48
2023-02-24T20:35:32.765Z,17.92
2023-02-24T20:38:18.660Z,22.13
2023-02-24T20:41:05.834Z,18.60
2023-02-24T20:43:52.198Z,21.67
2023-02-24T20:46:38.400Z,18.75
2023-02-24T20:49:24.643Z,18.17
2023-02-24T20:52:10.869Z,17.73
2023-02-24T20:54:56.632Z,15.80
2023-02-24T20:57:42.437Z,14.50
2023-02-24T21:00:28.333Z,17.65
2023-02-24T21:03:14.225Z,17.75
2023-02-24T21:06:09.393Z,19.73
2023-02-24T21:08:57.466Z,16.73
2023-02-24T21:11:43.676Z,21.35
2023-02-24T21:14:29.656Z,26.13
2023-02-24T21:17:15.934Z,19.27
2023-02-24T21:20:02.154Z,20.77
2023-02-24T21:22:48.212Z,19.77
2023-02-24T21:25:34.240Z,18.20
2023-02-24T21:28:23.487Z,17.60
2023-02-24T21:31:11.347Z,20.90
2023-02-24T21:33:57.226Z,23.35
2023-02-24T21:36:43.406Z,18.60
2023-02-24T21:39:29.356Z,16.80
2023-02-24T21:42:15.518Z,16.70
2023-02-24T21:45:02.568Z,15.70
2023-02-24T21:47:48.933Z,16.13
2023-02-24T21:50:35.630Z,15.68
2023-02-24T21:53:23.660Z,17.15
2023-02-24T21:56:16.526Z,17.70
2023-02-24T21:59:04.476Z,18.38
2023-02-24T22:01:50.305Z,16.70
2023-02-24T22:04:36.207Z,16.63
2023-02-24T22:07:22.088Z,20.02
2023-02-24T22:10:08.513Z,16.55
2023-02-24T22:12:56.228Z,17.75
2023-02-24T22:15:42.351Z,14.70
2023-02-24T22:18:29.214Z,16.92
2023-02-24T22:21:19.825Z,16.83
2023-02-24T22:24:06.247Z,15.05
2023-02-24T22:26:52.346Z,16.42
2023-02-24T22:29:38.572Z,15.35
2023-02-24T22:32:24.936Z,16.33
2023-02-24T22:35:10.931Z,17.02
2023-02-24T22:37:56.763Z,18.45
2023-02-24T22:40:43.033Z,17.48
2023-02-24T22:43:29.522Z,18.08
2023-02-24T22:46:22.407Z,15.90
2023-02-24T22:49:08.658Z,17.67
2023-02-24T22:51:54.492Z,16.15
2023-02-24T22:54:40.434Z,14.90
2023-02-24T22:57:27.257Z,18.52
2023-02-24T23:00:20.260Z,16.27
2023-02-24T23:03:06.390Z,16.05
2023-02-24T23:06:03.963Z,16.95
2023-02-24T23:08:50.779Z,15.32
2023-02-24T23:11:41.350Z,14.13
2023-02-24T23:14:27.550Z,14.63
2023-02-24T23:17:13.473Z,15.68
2023-02-24T23:20:02.017Z,14.90
2023-02-24T23:22:53.124Z,15.98
2023-02-24T23:25:39.112Z,17.23
2023-02-24T23:28:26.240Z,15.68
2023-02-24T23:31:18.888Z,15.70
2023-02-24T23:34:07.133Z,15.63
2023-02-24T23:36:53.463Z,14.57
2023-02-24T23:39:39.292Z,15.90
2023-02-24T23:42:25.183Z,14.68
2023-02-24T23:45:11.396Z,13.43
2023-02-24T23:47:57.740Z,13.05
2023-02-24T23:50:43.712Z,17.02
2023-02-24T23:53:30.035Z,16.15
2023-02-24T23:56:22.634Z,14.43
2023-02-24T23:59:09.003Z,17.90
